Time;durP1;ratioP1;P1;durP2;ratioP2;P2;SDS_P1;SDS_P2;PMS_P1;PMS_P2;Temp;Humidity;BMP_temperature;BMP_pressure;BME280_temperature;BME280_humidity;BME280_pressure;Samples;Min_cycle;Max_cycle;Signal;HPM_P1;HPM_P2
2022/01/17 00:01:29;;;;;;;14.13;2.65;;;;;;;;;;6191190;23;20009;-90
2022/01/17 00:03:57;;;;;;;12.40;2.83;;;;;;;;;;6191386;23;20017;-90
2022/01/17 00:06:23;;;;;;;18.75;2.88;;;;;;;;;;6191338;23;20052;-90
2022/01/17 00:08:50;;;;;;;11.90;2.75;;;;;;;;;;6192958;23;20016;-91
2022/01/17 00:11:17;;;;;;;4.97;1.77;;;;;;;;;;6190713;23;20024;-91
2022/01/17 00:13:47;;;;;;;22.25;3.78;;;;;;;;;;6190625;23;20079;-90
2022/01/17 00:16:17;;;;;;;9.75;3.15;;;;;;;;;;6191443;23;20048;-90
2022/01/17 00:21:17;;;;;;;12.93;2.47;;;;;;;;;;6216450;23;20023;-90
2022/01/17 00:23:43;;;;;;;27.80;3.92;;;;;;;;;;6190826;23;20021;-91
2022/01/17 00:26:09;;;;;;;13.40;2.78;;;;;;;;;;6191415;23;20036;-90
2022/01/17 00:28:35;;;;;;;16.00;3.15;;;;;;;;;;6216282;23;20442;-90
2022/01/17 00:31:04;;;;;;;16.08;3.63;;;;;;;;;;6190454;23;20009;-90
2022/01/17 00:33:31;;;;;;;9.68;3.17;;;;;;;;;;6191615;23;20020;-90
2022/01/17 00:35:57;;;;;;;11.30;4.22;;;;;;;;;;6190260;23;20031;-90
2022/01/17 00:38:23;;;;;;;13.45;3.78;;;;;;;;;;6191942;23;20510;-90
2022/01/17 00:40:50;;;;;;;16.42;3.65;;;;;;;;;;6191629;23;20308;-89
2022/01/17 00:43:16;;;;;;;13.60;3.08;;;;;;;;;;6191079;23;20458;-89
2022/01/17 00:45:43;;;;;;;13.75;3.30;;;;;;;;;;6191189;23;20017;-89
2022/01/17 00:48:10;;;;;;;17.00;3.40;;;;;;;;;;6190415;23;20013;-90
2022/01/17 00:50:40;;;;;;;15.57;2.90;;;;;;;;;;6190612;23;20100;-90
2022/01/17 00:53:07;;;;;;;19.95;3.92;;;;;;;;;;6191274;23;20379;-89
2022/01/17 00:55:34;;;;;;;16.55;3.33;;;;;;;;;;6191396;23;20477;-91
2022/01/17 00:58:00;;;;;;;29.42;5.93;;;;;;;;;;6190636;23;20048;-90
2022/01/17 01:00:26;;;;;;;17.92;3.00;;;;;;;;;;6190847;23;20019;-90
2022/01/17 01:02:53;;;;;;;15.85;3.17;;;;;;;;;;6190735;23;20012;-90
2022/01/17 01:05:19;;;;;;;12.32;2.90;;;;;;;;;;6191134;23;20021;-91
2022/01/17 01:07:45;;;;;;;3.33;2.10;;;;;;;;;;6190721;23;20525;-91
2022/01/17 01:10:12;;;;;;;18.17;2.83;;;;;;;;;;6191183;23;20040;-91
2022/01/17 01:12:39;;;;;;;13.13;2.75;;;;;;;;;;6190478;23;20012;-91
2022/01/17 01:15:11;;;;;;;11.75;3.00;;;;;;;;;;6191475;23;20024;-90
2022/01/17 01:17:48;;;;;;;17.02;2.60;;;;;;;;;;6190675;23;20096;-91
2022/01/17 01:28:13;;;;;;;15.77;3.95;;;;;;;;;;6216615;23;20083;-91
2022/01/17 01:30:44;;;;;;;16.88;3.70;;;;;;;;;;6191872;23;20012;-91
2022/01/17 01:33:10;;;;;;;13.85;2.70;;;;;;;;;;6190918;23;20028;-90
2022/01/17 01:35:44;;;;;;;16.40;3.00;;;;;;;;;;6191092;23;20020;-90
2022/01/17 01:38:11;;;;;;;14.35;3.03;;;;;;;;;;6190861;23;20075;-90
2022/01/17 01:40:37;;;;;;;11.73;4.32;;;;;;;;;;6191848;23;20020;-91
2022/01/17 01:43:03;;;;;;;11.13;2.40;;;;;;;;;;6190939;23;20542;-90
2022/01/17 01:45:29;;;;;;;15.20;2.72;;;;;;;;;;6190855;23;20020;-91
2022/01/17 01:47:55;;;;;;;25.42;4.00;;;;;;;;;;6216915;23;20013;-91
2022/01/17 01:50:22;;;;;;;17.00;3.92;;;;;;;;;;6190677;23;20017;-90
2022/01/17 01:52:48;;;;;;;24.05;3.28;;;;;;;;;;6191786;23;20012;-90
2022/01/17 01:55:16;;;;;;;17.35;3.50;;;;;;;;;;6214989;23;20063;-90
2022/01/17 01:57:43;;;;;;;17.38;3.65;;;;;;;;;;6215311;23;20017;-90
2022/01/17 02:00:10;;;;;;;9.02;2.55;;;;;;;;;;6191460;23;20103;-90
2022/01/17 02:02:36;;;;;;;13.13;3.83;;;;;;;;;;6217351;23;20066;-91
2022/01/17 02:05:03;;;;;;;10.15;2.58;;;;;;;;;;6192345;23;20017;-90
2022/01/17 02:07:29;;;;;;;10.43;4.10;;;;;;;;;;6218534;23;20350;-91
2022/01/17 02:09:55;;;;;;;13.95;2.78;;;;;;;;;;6192418;23;20517;-91
2022/01/17 02:12:21;;;;;;;16.42;3.55;;;;;;;;;;6217256;23;20058;-90
2022/01/17 02:14:52;;;;;;;20.83;5.18;;;;;;;;;;6217244;23;20028;-91
2022/01/17 02:17:20;;;;;;;7.88;2.88;;;;;;;;;;6192716;23;20458;-91
2022/01/17 02:19:51;;;;;;;8.07;2.03;;;;;;;;;;6192335;23;20023;-91
2022/01/17 02:22:17;;;;;;;12.30;3.53;;;;;;;;;;6218090;23;20091;-90
2022/01/17 02:24:44;;;;;;;14.85;3.30;;;;;;;;;;6192044;23;20021;-90
2022/01/17 02:27:10;;;;;;;14.52;2.50;;;;;;;;;;6192281;23;20343;-90
2022/01/17 02:29:36;;;;;;;13.13;3.47;;;;;;;;;;6193217;23;20052;-91
2022/01/17 02:32:02;;;;;;;18.88;3.45;;;;;;;;;;6191886;23;20013;-90
2022/01/17 02:34:28;;;;;;;17.30;3.65;;;;;;;;;;6191443;23;20021;-90
2022/01/17 02:36:54;;;;;;;16.60;3.03;;;;;;;;;;6192210;23;20019;-89
2022/01/17 02:39:20;;;;;;;11.05;2.22;;;;;;;;;;6191421;23;20021;-89
2022/01/17 02:41:49;;;;;;;11.75;2.88;;;;;;;;;;6191577;23;20013;-89
2022/01/17 02:44:15;;;;;;;10.23;2.92;;;;;;;;;;6192876;23;20020;-90
2022/01/17 02:46:41;;;;;;;13.10;2.88;;;;;;;;;;6191600;23;20016;-90
2022/01/17 02:49:08;;;;;;;12.50;2.65;;;;;;;;;;6216506;23;20016;-90
2022/01/17 02:51:35;;;;;;;12.27;2.40;;;;;;;;;;6216521;23;20020;-90
2022/01/17 02:54:01;;;;;;;11.23;4.07;;;;;;;;;;6191197;23;20505;-90
2022/01/17 02:56:27;;;;;;;13.85;2.80;;;;;;;;;;6191663;23;20048;-90
2022/01/17 02:58:53;;;;;;;10.00;2.85;;;;;;;;;;6191603;23;20027;-89
2022/01/17 03:01:22;;;;;;;18.77;3.38;;;;;;;;;;6216703;23;20489;-89
2022/01/17 03:03:48;;;;;;;15.43;3.17;;;;;;;;;;6191703;23;20462;-89
2022/01/17 03:06:15;;;;;;;22.63;3.60;;;;;;;;;;6192321;23;20016;-89
2022/01/17 03:08:41;;;;;;;24.83;3.20;;;;;;;;;;6216539;23;20087;-90
2022/01/17 03:11:09;;;;;;;18.98;5.18;;;;;;;;;;6190991;23;20059;-89
2022/01/17 03:13:37;;;;;;;29.63;3.38;;;;;;;;;;6191142;23;20052;-89
2022/01/17 03:16:08;;;;;;;8.43;2.35;;;;;;;;;;6215989;23;20012;-89
2022/01/17 03:18:39;;;;;;;19.30;2.72;;;;;;;;;;6191748;23;20083;-89
2022/01/17 03:21:06;;;;;;;14.05;2.78;;;;;;;;;;6191238;23;20024;-89
2022/01/17 03:23:32;;;;;;;9.52;2.67;;;;;;;;;;6191463;23;20020;-89
2022/01/17 03:25:58;;;;;;;4.63;1.70;;;;;;;;;;6191611;23;20017;-89
2022/01/17 03:28:25;;;;;;;15.63;2.53;;;;;;;;;;6190846;23;20139;-90
2022/01/17 03:30:51;;;;;;;15.25;3.88;;;;;;;;;;6216064;23;20027;-89
2022/01/17 03:33:17;;;;;;;13.75;2.97;;;;;;;;;;6190841;23;20466;-89
2022/01/17 03:35:44;;;;;;;13.68;3.00;;;;;;;;;;6190881;23;20031;-90
2022/01/17 03:38:12;;;;;;;14.55;3.15;;;;;;;;;;6190500;23;20163;-90
2022/01/17 03:40:38;;;;;;;16.55;3.85;;;;;;;;;;6190849;23;20118;-89
2022/01/17 03:43:04;;;;;;;14.95;3.22;;;;;;;;;;6190554;23;20028;-89
2022/01/17 03:45:30;;;;;;;5.70;1.92;;;;;;;;;;6190983;23;20039;-89
2022/01/17 03:47:56;;;;;;;11.20;3.28;;;;;;;;;;6215873;23;20062;-89
2022/01/17 03:50:24;;;;;;;15.85;2.92;;;;;;;;;;6191245;23;20099;-89
2022/01/17 03:52:50;;;;;;;13.10;2.67;;;;;;;;;;6216303;23;20016;-89
2022/01/17 03:55:17;;;;;;;6.65;2.58;;;;;;;;;;6191099;23;20020;-89
2022/01/17 03:57:44;;;;;;;12.00;2.42;;;;;;;;;;6215578;23;20100;-89
2022/01/17 04:00:13;;;;;;;12.73;2.65;;;;;;;;;;6190616;23;20043;-89
2022/01/17 04:02:39;;;;;;;16.52;3.25;;;;;;;;;;6216098;23;20458;-89
2022/01/17 04:05:06;;;;;;;17.90;2.20;;;;;;;;;;6216006;23;20359;-89
2022/01/17 04:07:32;;;;;;;8.18;2.28;;;;;;;;;;6192304;23;20016;-89
2022/01/17 04:09:58;;;;;;;9.35;2.67;;;;;;;;;;6192277;23;20445;-90
2022/01/17 04:12:24;;;;;;;16.95;2.80;;;;;;;;;;6191537;23;20024;-91
2022/01/17 04:14:54;;;;;;;15.32;2.70;;;;;;;;;;6191871;23;20019;-91
2022/01/17 04:17:20;;;;;;;11.23;2.85;;;;;;;;;;6191349;23;20016;-91
2022/01/17 04:19:52;;;;;;;16.10;2.58;;;;;;;;;;6190774;23;20016;-91
2022/01/17 04:22:18;;;;;;;11.10;1.55;;;;;;;;;;6216245;23;20016;-90
2022/01/17 04:24:44;;;;;;;12.55;2.50;;;;;;;;;;6215944;23;20025;-91
2022/01/17 04:27:10;;;;;;;10.82;2.70;;;;;;;;;;6191054;23;20059;-90
2022/01/17 04:29:39;;;;;;;8.52;2.28;;;;;;;;;;6191689;23;20092;-89
2022/01/17 04:32:05;;;;;;;11.23;2.35;;;;;;;;;;6191243;23;20079;-89
2022/01/17 04:34:32;;;;;;;11.30;2.85;;;;;;;;;;6190785;23;20017;-91
2022/01/17 04:36:59;;;;;;;14.65;4.57;;;;;;;;;;6217083;23;20055;-91
2022/01/17 04:39:26;;;;;;;17.15;3.50;;;;;;;;;;6191176;23;20024;-91
2022/01/17 04:41:53;;;;;;;6.45;2.25;;;;;;;;;;6192672;23;20304;-91
2022/01/17 04:47:04;;;;;;;11.65;2.65;;;;;;;;;;6216312;23;20027;-91
2022/01/17 04:49:30;;;;;;;8.77;2.22;;;;;;;;;;6192394;23;20558;-91
2022/01/17 04:51:56;;;;;;;13.18;3.35;;;;;;;;;;6217633;23;20012;-91
2022/01/17 04:54:42;;;;;;;10.18;2.60;;;;;;;;;;6192556;23;20024;-89
2022/01/17 04:57:09;;;;;;;12.55;3.03;;;;;;;;;;6192086;23;20032;-89
2022/01/17 04:59:36;;;;;;;19.00;4.45;;;;;;;;;;6193340;23;20016;-89
2022/01/17 05:02:02;;;;;;;18.88;2.83;;;;;;;;;;6192596;23;20023;-89
2022/01/17 05:04:28;;;;;;;9.63;2.80;;;;;;;;;;6216743;23;20046;-89
2022/01/17 05:06:54;;;;;;;13.13;3.50;;;;;;;;;;6191914;23;20052;-89
2022/01/17 05:09:21;;;;;;;23.83;3.30;;;;;;;;;;6191716;23;20016;-89
2022/01/17 05:11:47;;;;;;;9.95;3.25;;;;;;;;;;6217489;23;20016;-89
2022/01/17 05:14:13;;;;;;;20.10;3.58;;;;;;;;;;6215053;23;20438;-89
2022/01/17 05:16:46;;;;;;;12.73;3.22;;;;;;;;;;6190106;23;20016;-89
2022/01/17 05:21:57;;;;;;;17.25;3.58;;;;;;;;;;6215119;23;20354;-90
2022/01/17 05:24:23;;;;;;;19.13;3.10;;;;;;;;;;6215347;23;20020;-89
2022/01/17 05:26:49;;;;;;;8.00;3.47;;;;;;;;;;6215203;23;20454;-89
2022/01/17 05:29:15;;;;;;;17.08;4.57;;;;;;;;;;6190140;23;20036;-89
2022/01/17 05:31:41;;;;;;;8.40;3.00;;;;;;;;;;6190336;23;20048;-89
2022/01/17 05:34:07;;;;;;;16.17;3.60;;;;;;;;;;6189798;23;20024;-89
2022/01/17 05:36:33;;;;;;;13.48;3.55;;;;;;;;;;6191946;23;20048;-89
2022/01/17 05:38:59;;;;;;;20.52;3.72;;;;;;;;;;6192695;23;20020;-89
2022/01/17 05:41:25;;;;;;;6.88;3.00;;;;;;;;;;6192225;23;20021;-89
2022/01/17 05:43:51;;;;;;;18.35;3.95;;;;;;;;;;6192334;23;20332;-89
2022/01/17 05:46:17;;;;;;;7.10;3.10;;;;;;;;;;6193017;23;20382;-90
2022/01/17 05:48:43;;;;;;;11.10;4.15;;;;;;;;;;6192207;23;20350;-89
2022/01/17 05:51:09;;;;;;;14.95;3.92;;;;;;;;;;6192852;23;20024;-92
2022/01/17 05:53:35;;;;;;;18.98;4.32;;;;;;;;;;6192412;23;20066;-93
2022/01/17 05:56:02;;;;;;;33.75;6.03;;;;;;;;;;6192009;23;20021;-93
2022/01/17 05:58:28;;;;;;;14.73;3.40;;;;;;;;;;6192030;23;20370;-92
2022/01/17 06:00:54;;;;;;;23.27;5.63;;;;;;;;;;6191988;23;20027;-93
2022/01/17 06:03:20;;;;;;;21.02;4.22;;;;;;;;;;6192128;23;20513;-92
2022/01/17 06:05:46;;;;;;;15.05;4.25;;;;;;;;;;6191837;23;20024;-92
2022/01/17 06:08:12;;;;;;;21.63;5.32;;;;;;;;;;6191949;23;20021;-93
2022/01/17 06:10:38;;;;;;;16.48;4.18;;;;;;;;;;6191904;23;20016;-94
2022/01/17 06:13:05;;;;;;;13.45;3.47;;;;;;;;;;6191493;23;20029;-92
2022/01/17 06:15:31;;;;;;;15.32;4.18;;;;;;;;;;6192241;23;20019;-93
2022/01/17 06:17:57;;;;;;;16.90;5.25;;;;;;;;;;6217767;23;20051;-93
2022/01/17 06:20:23;;;;;;;19.60;4.18;;;;;;;;;;6192918;23;20052;-94
2022/01/17 06:22:49;;;;;;;10.32;3.80;;;;;;;;;;6193085;23;20020;-94
2022/01/17 06:25:15;;;;;;;15.38;4.15;;;;;;;;;;6192665;23;20020;-94
2022/01/17 06:27:41;;;;;;;14.82;4.43;;;;;;;;;;6192760;23;20034;-94
2022/01/17 06:30:09;;;;;;;14.27;4.38;;;;;;;;;;6192463;23;20016;-94
2022/01/17 06:32:35;;;;;;;15.93;3.90;;;;;;;;;;6217120;23;20518;-94
2022/01/17 06:35:03;;;;;;;21.13;4.95;;;;;;;;;;6192588;23;20434;-94
2022/01/17 06:37:29;;;;;;;14.93;4.35;;;;;;;;;;6216698;23;20071;-91
2022/01/17 06:39:56;;;;;;;10.48;4.45;;;;;;;;;;6217418;23;20019;-92
2022/01/17 06:42:25;;;;;;;16.15;4.70;;;;;;;;;;6191952;23;20405;-90
2022/01/17 06:44:51;;;;;;;21.25;4.35;;;;;;;;;;6192330;23;20016;-91
2022/01/17 06:47:17;;;;;;;23.15;5.82;;;;;;;;;;6190769;23;20016;-90
2022/01/17 06:49:43;;;;;;;31.90;5.57;;;;;;;;;;6191625;23;20020;-92
2022/01/17 06:52:10;;;;;;;28.08;5.75;;;;;;;;;;6216717;23;20318;-92
2022/01/17 06:54:36;;;;;;;18.15;5.90;;;;;;;;;;6216290;23;20031;-92
2022/01/17 06:57:02;;;;;;;36.75;5.60;;;;;;;;;;6191306;23;20013;-92
2022/01/17 06:59:28;;;;;;;26.45;5.97;;;;;;;;;;6191528;23;20048;-91
2022/01/17 07:01:54;;;;;;;22.90;5.57;;;;;;;;;;6191336;23;20472;-92
2022/01/17 07:04:20;;;;;;;22.70;5.25;;;;;;;;;;6191070;23;20021;-91
2022/01/17 07:06:46;;;;;;;23.77;5.30;;;;;;;;;;6191138;23;20017;-92
2022/01/17 07:09:16;;;;;;;20.50;4.47;;;;;;;;;;6191456;23;20024;-92
2022/01/17 07:11:42;;;;;;;33.35;5.72;;;;;;;;;;6191090;23;20337;-92
2022/01/17 07:14:09;;;;;;;23.73;4.80;;;;;;;;;;6190830;23;20024;-91
2022/01/17 07:16:39;;;;;;;13.77;5.28;;;;;;;;;;6191003;23;20028;-92
2022/01/17 07:19:05;;;;;;;15.65;5.13;;;;;;;;;;6191138;23;20059;-92
2022/01/17 07:21:32;;;;;;;22.08;4.82;;;;;;;;;;6191579;23;20385;-92
2022/01/17 07:23:58;;;;;;;13.75;4.82;;;;;;;;;;6191162;23;20052;-91
2022/01/17 07:26:24;;;;;;;18.80;4.82;;;;;;;;;;6191010;23;20016;-91
2022/01/17 07:28:50;;;;;;;29.05;4.65;;;;;;;;;;6190440;23;20021;-90
2022/01/17 07:31:17;;;;;;;13.32;3.55;;;;;;;;;;6191419;23;20008;-89
2022/01/17 07:33:43;;;;;;;19.38;3.72;;;;;;;;;;6190868;23;20021;-90
2022/01/17 07:36:09;;;;;;;19.40;4.78;;;;;;;;;;6189579;23;20039;-90
2022/01/17 07:38:36;;;;;;;24.38;5.38;;;;;;;;;;6190735;23;20047;-90
2022/01/17 07:41:03;;;;;;;24.92;4.53;;;;;;;;;;6190002;23;20030;-89
2022/01/17 07:43:29;;;;;;;22.17;5.68;;;;;;;;;;6189932;23;20468;-89
2022/01/17 07:46:04;;;;;;;20.10;5.20;;;;;;;;;;6190176;23;20458;-90
2022/01/17 07:51:00;;;;;;;26.60;5.93;;;;;;;;;;6215426;23;20017;-91
2022/01/17 07:53:26;;;;;;;24.90;5.72;;;;;;;;;;6191430;23;20039;-90
2022/01/17 07:55:52;;;;;;;20.70;4.50;;;;;;;;;;6190646;23;20079;-91
2022/01/17 07:58:18;;;;;;;26.00;5.78;;;;;;;;;;6192241;23;20350;-91
2022/01/17 08:00:44;;;;;;;19.48;5.50;;;;;;;;;;6217047;23;20389;-89
2022/01/17 08:03:13;;;;;;;22.50;4.55;;;;;;;;;;6194446;23;20024;-90
2022/01/17 08:05:39;;;;;;;29.05;5.38;;;;;;;;;;6195793;23;20017;-89
2022/01/17 08:08:05;;;;;;;37.72;5.55;;;;;;;;;;6195854;23;20017;-90
2022/01/17 08:10:33;;;;;;;22.67;5.63;;;;;;;;;;6195293;23;20016;-90
2022/01/17 08:12:59;;;;;;;19.20;5.75;;;;;;;;;;6195168;23;20024;-89
2022/01/17 08:15:26;;;;;;;20.67;4.53;;;;;;;;;;6194388;23;20024;-91
2022/01/17 08:17:55;;;;;;;25.00;5.90;;;;;;;;;;6194707;23;20044;-90
2022/01/17 08:20:21;;;;;;;17.13;5.80;;;;;;;;;;6194104;23;20083;-90
2022/01/17 08:22:50;;;;;;;21.42;4.10;;;;;;;;;;6194022;23;20016;-89
2022/01/17 08:25:16;;;;;;;29.38;3.97;;;;;;;;;;6217567;23;20375;-89
2022/01/17 08:27:43;;;;;;;20.48;4.68;;;;;;;;;;6216291;23;20095;-90
2022/01/17 08:30:09;;;;;;;27.23;6.03;;;;;;;;;;6192181;23;20326;-92
2022/01/17 08:32:36;;;;;;;23.48;4.90;;;;;;;;;;6215840;23;20020;-90
2022/01/17 08:35:02;;;;;;;15.02;4.28;;;;;;;;;;6190622;23;20401;-91
2022/01/17 08:37:30;;;;;;;23.95;4.72;;;;;;;;;;6190868;23;20012;-92
2022/01/17 08:39:57;;;;;;;27.02;5.30;;;;;;;;;;6190804;23;20021;-92
2022/01/17 08:42:23;;;;;;;30.33;5.68;;;;;;;;;;6190738;23;20339;-89
2022/01/17 08:44:50;;;;;;;17.83;4.97;;;;;;;;;;6191208;23;20032;-90
2022/01/17 08:47:17;;;;;;;22.85;4.97;;;;;;;;;;6215909;23;20017;-89
2022/01/17 08:49:43;;;;;;;23.05;5.50;;;;;;;;;;6215662;23;20016;-90
2022/01/17 08:52:09;;;;;;;23.17;5.22;;;;;;;;;;6190822;23;20043;-89
2022/01/17 08:54:36;;;;;;;25.30;5.40;;;;;;;;;;6190734;23;20016;-90
2022/01/17 08:57:02;;;;;;;28.27;5.82;;;;;;;;;;6190708;23;20020;-92
2022/01/17 08:59:31;;;;;;;29.65;5.53;;;;;;;;;;6190593;23;20048;-91
2022/01/17 09:01:58;;;;;;;32.15;6.05;;;;;;;;;;6215795;23;20019;-92
2022/01/17 09:04:24;;;;;;;16.45;5.28;;;;;;;;;;6189884;23;20025;-92
2022/01/17 09:06:50;;;;;;;23.42;5.78;;;;;;;;;;6190905;23;20438;-90
2022/01/17 09:09:16;;;;;;;26.45;5.85;;;;;;;;;;6189282;23;20354;-89
2022/01/17 09:11:43;;;;;;;40.28;6.90;;;;;;;;;;6189548;23;20008;-89
2022/01/17 09:14:09;;;;;;;30.90;5.63;;;;;;;;;;6189325;23;20016;-89
2022/01/17 09:16:36;;;;;;;34.53;4.47;;;;;;;;;;6190130;23;20060;-90
2022/01/17 09:19:02;;;;;;;26.48;6.78;;;;;;;;;;6191245;23;20028;-89
2022/01/17 09:21:29;;;;;;;17.60;4.90;;;;;;;;;;6214338;23;20013;-89
2022/01/17 09:23:57;;;;;;;28.02;5.78;;;;;;;;;;6188772;23;20017;-90
2022/01/17 09:26:25;;;;;;;38.45;6.22;;;;;;;;;;6189209;23;20016;-89
2022/01/17 09:28:52;;;;;;;26.50;6.97;;;;;;;;;;6190148;23;20009;-89
2022/01/17 09:31:18;;;;;;;32.90;7.15;;;;;;;;;;6185602;23;20458;-90
2022/01/17 09:33:45;;;;;;;31.98;7.13;;;;;;;;;;6189067;23;20020;-90
2022/01/17 09:36:11;;;;;;;21.77;5.07;;;;;;;;;;6213883;23;20024;-90
2022/01/17 09:38:37;;;;;;;27.30;5.22;;;;;;;;;;6188497;23;20017;-90
2022/01/17 09:41:03;;;;;;;16.20;4.85;;;;;;;;;;6213658;23;20411;-90
2022/01/17 09:43:29;;;;;;;25.13;5.95;;;;;;;;;;6215037;23;20099;-90
2022/01/17 09:45:57;;;;;;;25.23;7.13;;;;;;;;;;6214404;23;20099;-90
2022/01/17 09:48:33;;;;;;;34.15;7.35;;;;;;;;;;6189441;23;20019;-89
2022/01/17 09:51:04;;;;;;;29.55;7.68;;;;;;;;;;6189278;23;20454;-89
2022/01/17 09:53:34;;;;;;;28.17;5.63;;;;;;;;;;6190236;23;20013;-93
2022/01/17 09:56:03;;;;;;;22.52;6.28;;;;;;;;;;6190282;23;20589;-92
2022/01/17 09:58:30;;;;;;;30.02;6.43;;;;;;;;;;6190602;23;20059;-92
2022/01/17 10:00:56;;;;;;;26.77;6.65;;;;;;;;;;6191299;23;20017;-92
2022/01/17 10:03:22;;;;;;;20.52;6.55;;;;;;;;;;6189365;23;20039;-93
2022/01/17 10:05:48;;;;;;;26.25;4.85;;;;;;;;;;6189527;23;20096;-89
2022/01/17 10:08:17;;;;;;;42.70;7.32;;;;;;;;;;6190355;23;20443;-91
2022/01/17 10:10:51;;;;;;;29.88;5.57;;;;;;;;;;6189780;23;20017;-90
2022/01/17 10:13:20;;;;;;;;;;;8.80;99.90;;;;;;6214726;23;20099;-91
2022/01/17 10:16:02;;;;;;;35.40;7.13;;;;;;;;;;6214703;23;19964;-90
2022/01/17 10:18:29;;;;;;;17.45;5.82;;;;;;;;;;6215232;23;20465;-92
2022/01/17 10:21:01;;;;;;;21.52;5.90;;;;;;;;;;6190603;23;20027;-91
2022/01/17 10:26:37;;;;;;;20.52;6.28;;;;;;;;;;6216791;23;20103;-89
2022/01/17 10:37:15;;;;;;;31.65;7.35;;;;;;;;;;6216943;23;20020;-94
2022/01/17 10:39:54;;;;;;;20.85;4.82;;;;;;;;;;6191301;23;20102;-93
2022/01/17 10:42:30;;;;;;;24.48;6.38;;;;;;;;;;6191353;23;20058;-92
2022/01/17 10:45:01;;;;;;;39.00;7.45;;;;;;;;;;6191391;23;20031;-94
2022/01/17 10:47:28;;;;;;;30.63;6.78;;;;;;;;;;6217233;23;20044;-92
2022/01/17 10:49:56;;;;;;;40.80;8.20;;;;;;;;;;6191027;23;20025;-89
2022/01/17 10:52:36;;;;;;;32.17;6.78;;;;;;;;;;6192021;23;20087;-88
2022/01/17 10:55:23;;;;;;;20.83;7.60;;;;;;;;;;6216631;23;20016;-89
2022/01/17 10:57:50;;;;;;;34.80;6.72;;;;;;;;;;6216387;23;20016;-90
2022/01/17 11:00:21;;;;;;;25.55;6.47;;;;;;;;;;6191732;23;20016;-89
2022/01/17 11:02:50;;;;;;;25.60;5.60;;;;;;;;;;6215906;23;20469;-89
2022/01/17 11:05:17;;;;;;;33.10;8.10;;;;;;;;;;6216347;23;20028;-89
2022/01/17 11:07:48;;;;;;;45.75;9.73;;;;;;;;;;6190686;23;20016;-89
2022/01/17 11:10:16;;;;;;;26.77;7.18;;;;;;;;;;6190855;23;20051;-89
2022/01/17 11:12:42;;;;;;;28.13;6.47;;;;;;;;;;6215696;23;20038;-89
2022/01/17 11:15:11;;;;;;;31.20;8.88;;;;;;;;;;6215529;23;20047;-89
2022/01/17 11:17:39;;;;;;;23.65;6.80;;;;;;;;;;6191159;23;20020;-88
2022/01/17 11:20:09;;;;;;;27.10;6.38;;;;;;;;;;6190833;23;20458;-89
2022/01/17 11:22:37;;;;;;;40.78;8.80;;;;;;;;;;6215951;23;20096;-89
2022/01/17 11:25:05;;;;;;;29.23;7.50;;;;;;;;;;6191299;23;20082;-89
2022/01/17 11:27:31;;;;;;;28.42;6.07;;;;;;;;;;6192112;23;20013;-89
2022/01/17 11:29:57;;;;;;;30.58;7.70;;;;;;;;;;6191093;23;20021;-89
2022/01/17 11:32:24;;;;;;;23.85;5.78;;;;;;;;;;6190036;23;20070;-89
2022/01/17 11:34:50;;;;;;;37.17;6.60;;;;;;;;;;6215685;23;20087;-88
2022/01/17 11:37:17;;;;;;;40.80;7.85;;;;;;;;;;6190765;23;20013;-89
2022/01/17 11:39:46;;;;;;;44.08;8.93;;;;;;;;;;6216655;23;20059;-94
2022/01/17 11:42:31;;;;;;;37.15;7.60;;;;;;;;;;6192928;23;20020;-93
2022/01/17 11:44:57;;;;;;;50.67;7.70;;;;;;;;;;6191972;23;20043;-91
2022/01/17 11:47:46;;;;;;;49.00;9.40;;;9.30;99.90;;;;;;6191025;23;20016;-91
2022/01/17 11:50:35;;;;;;;27.13;8.07;;;;;;;;;;6192324;23;20027;-93
2022/01/17 11:53:07;;;;;;;34.63;8.25;;;;;;;;;;6217427;23;20013;-91
2022/01/17 11:55:42;;;;;;;23.73;6.85;;;;;;;;;;6216174;23;20048;-92
2022/01/17 11:58:26;;;;;;;46.58;10.85;;;;;;;;;;6216190;23;20084;-92
2022/01/17 12:01:01;;;;;;;27.40;8.38;;;;;;;;;;6215995;23;20459;-90
2022/01/17 12:03:29;;;;;;;47.55;8.90;;;;;;;;;;6190766;23;20099;-92
2022/01/17 12:05:57;;;;;;;47.33;8.88;;;;;;;;;;6190614;23;20401;-92
2022/01/17 12:08:24;;;;;;;35.65;8.10;;;;;;;;;;6190457;23;20020;-93
2022/01/17 12:10:52;;;;;;;35.33;8.70;;;;;;;;;;6190554;23;20020;-89
2022/01/17 12:13:20;;;;;;;40.47;9.52;;;;;;;;;;6191141;23;20012;-92
2022/01/17 12:16:22;;;;;;;48.95;10.00;;;;;;;;;;6189663;23;20346;-91
2022/01/17 12:19:06;;;;;;;49.47;9.45;;;9.40;99.90;;;;;;6214403;23;20095;-89
2022/01/17 12:21:53;;;;;;;41.30;9.43;;;;;;;;;;6191159;23;20138;-92
2022/01/17 12:24:39;;;;;;;41.60;7.38;;;;;;;;;;6189873;23;20052;-89
2022/01/17 12:27:07;;;;;;;39.92;8.70;;;;;;;;;;6190190;23;20362;-89
2022/01/17 12:29:39;;;;;;;41.78;8.68;;;;;;;;;;6190305;23;20326;-88
2022/01/17 12:32:06;;;;;;;34.53;7.95;;;;;;;;;;6190078;23;20032;-91
2022/01/17 12:34:39;;;;;;;36.60;10.13;;;;;;;;;;6189562;23;20477;-88
2022/01/17 12:37:25;;;;;;;33.53;8.02;;;;;;;;;;6190225;23;20054;-88
2022/01/17 12:39:51;;;;;;;43.55;8.65;;;;;;;;;;6189402;23;20016;-90
2022/01/17 12:42:18;;;;;;;40.80;9.98;;;;;;;;;;6189853;23;20020;-89
2022/01/17 12:44:45;;;;;;;41.75;8.57;;;;;;;;;;6190749;23;20107;-89
2022/01/17 12:47:11;;;;;;;40.10;8.45;;;;;;;;;;6214878;23;20346;-88
2022/01/17 12:49:39;;;;;;;51.13;9.73;;;;;;;;;;6190403;23;20200;-88
2022/01/17 12:52:05;;;;;;;39.58;9.30;;;;;;;;;;6189997;23;20035;-93
2022/01/17 12:54:33;;;;;;;31.15;8.63;;;;;;;;;;6190110;23;20294;-89
2022/01/17 12:57:01;;;;;;;32.78;7.68;;;;;;;;;;6189397;23;20023;-89
2022/01/17 12:59:27;;;;;;;25.02;6.78;;;;;;;;;;6189664;23;20524;-88
2022/01/17 13:01:57;;;;;;;43.08;8.48;;;;;;;;;;6190568;23;20012;-88
2022/01/17 13:04:23;;;;;;;33.33;7.50;;;;;;;;;;6189883;23;20017;-88
2022/01/17 13:06:53;;;;;;;45.58;9.13;;;;;;;;;;6189588;23;20446;-89
2022/01/17 13:09:21;;;;;;;27.70;7.13;;;;;;;;;;6214536;23;20027;-88
2022/01/17 13:11:48;;;;;;;33.10;8.05;;;;;;;;;;6214637;23;20024;-89
2022/01/17 13:14:16;;;;;;;28.90;7.60;;;9.20;99.90;;;;;;6189516;23;20458;-90
2022/01/17 13:16:42;;;;;;;33.90;9.32;;;;;;;;;;6214250;23;20085;-89
2022/01/17 13:19:12;;;;;;;33.28;7.45;;;;;;;;;;6188739;23;20020;-90
2022/01/17 13:21:40;;;;;;;40.20;9.40;;;;;;;;;;6189765;23;20013;-88
2022/01/17 13:24:22;;;;;;;32.22;8.10;;;;;;;;;;6213816;23;20017;-89
2022/01/17 13:26:48;;;;;;;46.25;8.52;;;;;;;;;;6189864;23;20016;-89
2022/01/17 13:29:15;;;;;;;38.20;9.60;;;;;;;;;;6188763;23;20016;-88
2022/01/17 13:31:42;;;;;;;50.22;9.70;;;;;;;;;;6187307;23;20034;-89
2022/01/17 13:34:14;;;;;;;37.22;8.85;;;;;;;;;;6189256;23;20347;-88
2022/01/17 13:36:41;;;;;;;31.48;9.05;;;;;;;;;;6189264;23;20008;-88
2022/01/17 13:39:12;;;;;;;39.72;8.57;;;;;;;;;;6189154;23;20035;-88
2022/01/17 13:41:43;;;;;;;41.75;8.18;;;;;;;;;;6190351;23;20028;-88
2022/01/17 13:44:09;;;;;;;61.20;10.10;;;;;;;;;;6215140;23;20024;-88
2022/01/17 13:46:38;;;;;;;44.42;9.05;;;;;;;;;;6189371;23;20480;-88
2022/01/17 13:49:05;;;;;;;40.55;8.35;;;;;;;;;;6216648;23;20115;-89
2022/01/17 13:51:31;;;;;;;37.70;8.52;;;;;;;;;;6214027;23;20013;-89
2022/01/17 13:53:57;;;;;;;29.42;7.75;;;;;;;;;;6189122;23;20023;-89
2022/01/17 13:56:30;;;;;;;29.25;6.07;;;;;;;;;;6190402;23;20017;-89
2022/01/17 13:58:57;;;;;;;30.87;8.67;;;;;;;;;;6216563;23;20526;-89
2022/01/17 14:01:23;;;;;;;27.95;6.63;;;;;;;;;;6217360;23;20247;-89
2022/01/17 14:03:49;;;;;;;37.50;9.43;;;;;;;;;;6190881;23;20350;-88
2022/01/17 14:06:16;;;;;;;34.35;7.32;;;;;;;;;;6192147;23;20056;-89
2022/01/17 14:08:50;;;;;;;28.17;7.22;;;;;;;;;;6193264;23;20017;-88
2022/01/17 14:11:22;;;;;;;24.02;7.30;;;8.70;99.90;;;;;;6191988;23;20016;-88
2022/01/17 14:13:54;;;;;;;37.47;7.05;;;8.90;99.90;;;;;;6192809;23;20071;-88
2022/01/17 14:16:33;;;;;;;25.20;8.43;;;;;;;;;;6217335;23;20016;-89
2022/01/17 14:19:00;;;;;;;36.22;8.77;;;;;;;;;;6217780;23;20017;-88
2022/01/17 14:21:28;;;;;;;24.17;6.72;;;;;;;;;;6191251;23;20020;-88
2022/01/17 14:24:23;;;;;;;28.08;8.02;;;;;;;;;;6192644;23;20017;-89
2022/01/17 14:26:49;;;;;;;40.08;7.07;;;;;;;;;;6078483;23;20144;-89
2022/01/17 14:29:16;;;;;;;39.10;8.13;;;;;;;;;;6102107;23;20022;-89
2022/01/17 14:31:44;;;;;;;39.50;8.57;;;;;;;;;;6102297;23;20101;-88
2022/01/17 14:34:11;;;;;;;36.47;8.50;;;;;;;;;;6103172;23;20434;-89
2022/01/17 14:36:37;;;;;;;31.48;7.35;;;;;;;;;;6102184;23;20022;-88
2022/01/17 14:39:05;;;;;;;40.13;8.40;;;;;;;;;;6102436;23;20050;-88
2022/01/17 14:41:34;;;;;;;35.47;8.63;;;8.60;99.90;;;;;;6102184;23;20022;-89
2022/01/17 14:44:03;;;;;;;39.15;7.38;;;;;;;;;;6101808;23;20603;-89
2022/01/17 14:46:29;;;;;;;41.55;7.50;;;;;;;;;;6102227;23;20101;-89
2022/01/17 14:48:55;;;;;;;28.20;5.88;;;;;;;;;;6102561;23;20344;-89
2022/01/17 14:51:23;;;;;;;56.85;9.23;;;;;;;;;;6100898;23;20420;-89
2022/01/17 14:53:52;;;;;;;36.83;8.93;;;;;;;;;;6100779;23;20029;-89
2022/01/17 15:04:20;;;;;;;31.65;7.22;;;;;;;;;;6212536;23;20027;-90
2022/01/17 15:06:46;;;;;;;29.73;7.35;;;;;;;;;;6214994;23;20027;-89
2022/01/17 15:09:13;;;;;;;39.28;8.57;;;;;;;;;;6190951;23;20067;-89
2022/01/17 15:11:39;;;;;;;35.88;7.60;;;;;;;;;;6214959;23;20091;-89